Time;durP1;ratioP1;P1;durP2;ratioP2;P2;SDS_P1;SDS_P2;PMS_P1;PMS_P2;Temp;Humidity;BMP_temperature;BMP_pressure;BME280_temperature;BME280_humidity;BME280_pressure;Samples;Min_cycle;Max_cycle;Signal;HPM_P1;HPM_P2
2022/12/06 00:03:53;;;;;;;;;;;;;;;;;;8428976;28;27219;-81
2022/12/06 00:07:53;;;;;;;;;;;;;;;;;;8428918;28;27549;-83
2022/12/06 00:11:53;;;;;;;;;;;;;;;;;;8426155;28;29688;-82
2022/12/06 00:15:53;;;;;;;;;;;;;;;;;;8412209;28;29076;-82
2022/12/06 00:19:53;;;;;;;;;;;;;;;;;;8411940;28;30240;-81
2022/12/06 00:23:53;;;;;;;;;;;;;;;;;;8424009;28;28763;-81
2022/12/06 00:27:54;;;;;;;;;;;;;;;;;;8409123;28;29023;-81
2022/12/06 00:31:54;;;;;;;;;;;;;;;;;;8428816;28;27463;-81
2022/12/06 00:35:54;;;;;;;;;;;;;;;;;;8430139;28;27212;-81
2022/12/06 00:39:54;;;;;;;;;;;;;;;;;;8427867;28;28664;-81
2022/12/06 00:43:54;;;;;;;;;;;;;;;;;;8412085;28;28611;-82
2022/12/06 00:47:54;;;;;;;;;;;;;;;;;;8409526;28;28553;-82
2022/12/06 00:51:55;;;;;;;;;;;;;;;;;;8428662;28;27834;-82
2022/12/06 00:55:55;;;;;;;;;;;;;;;;;;8410723;28;29043;-81
2022/12/06 00:59:56;;;;;;;;;;;;;;;;;;8409994;28;28741;-81
2022/12/06 01:03:56;;;;;;;;;;;;;;;;;;8425439;28;28443;-82
2022/12/06 01:07:56;;;;;;;;;;;;;;;;;;8427227;28;27597;-81
2022/12/06 01:11:56;;;;;;;;;;;;;;;;;;8413434;28;28715;-82
2022/12/06 01:15:57;;;;;;;;;;;;;;;;;;8430464;28;28571;-81
2022/12/06 01:19:57;;;;;;;;;;;;;;;;;;8431422;28;27957;-82
2022/12/06 01:23:57;;;;;;;;;;;;;;;;;;8412944;28;28485;-82
2022/12/06 01:27:57;;;;;;;;;;;;;;;;;;8431820;28;29057;-81
2022/12/06 01:31:57;;;;;;;;;;;;;;;;;;8432905;28;27367;-81
2022/12/06 01:35:59;;;;;;;;;;;;;;;;;;8431234;28;48051;-81
2022/12/06 01:39:59;;;;;;;;;;;;;;;;;;8432151;28;28685;-82
2022/12/06 01:43:59;;;;;;;;;;;;;;;;;;8412574;28;28775;-82
2022/12/06 01:47:59;;;;;;;;;;;;;;;;;;8433710;28;27439;-82
2022/12/06 01:51:59;;;;;;;;;;;;;;;;;;8431621;28;27382;-82
2022/12/06 01:56:00;;;;;;;;;;;;;;;;;;8416106;28;29027;-82
2022/12/06 02:00:00;;;;;;;;;;;;;;;;;;8409735;28;28528;-81
2022/12/06 02:04:00;;;;;;;;;;;;;;;;;;8430112;28;27399;-82
2022/12/06 02:08:00;;;;;;;;;;;;;;;;;;8433509;28;27494;-83
2022/12/06 02:12:00;;;;;;;;;;;;;;;;;;8411206;28;29828;-82
2022/12/06 02:16:00;;;;;;;;;;;;;;;;;;8431944;28;28212;-82
2022/12/06 02:20:00;;;;;;;;;;;;;;;;;;8429678;28;27352;-81
2022/12/06 02:24:00;;;;;;;;;;;;;;;;;;8413872;28;28485;-82
2022/12/06 02:28:00;;;;;;;;;;;;;;;;;;8431137;28;28701;-81
2022/12/06 02:32:01;;;;;;;;;;;;;;;;;;8412216;28;28659;-81
2022/12/06 02:36:01;;;;;;;;;;;;;;;;;;8428320;28;28533;-81
2022/12/06 02:40:01;;;;;;;;;;;;;;;;;;8427150;28;28748;-83
2022/12/06 02:44:01;;;;;;;;;;;;;;;;;;8432941;28;27462;-82
2022/12/06 02:48:01;;;;;;;;;;;;;;;;;;8414264;28;28921;-81
2022/12/06 02:52:01;;;;;;;;;;;;;;;;;;8431796;28;27346;-81
2022/12/06 02:56:01;;;;;;;;;;;;;;;;;;8432447;28;27993;-81
2022/12/06 03:00:01;;;;;;;;;;;;;;;;;;8430857;28;29022;-82
2022/12/06 03:04:01;;;;;;;;;;;;;;;;;;8405204;28;28926;-82
2022/12/06 03:08:01;;;;;;;;;;;;;;;;;;8436322;28;27355;-81
2022/12/06 03:12:01;;;;;;;;;;;;;;;;;;8433901;28;27584;-83
2022/12/06 03:16:02;;;;;;;;;;;;;;;;;;8411142;28;28878;-83
2022/12/06 03:20:02;;;;;;;;;;;;;;;;;;8432954;28;28850;-82
2022/12/06 03:24:02;;;;;;;;;;;;;;;;;;8414793;28;29882;-83
2022/12/06 03:28:02;;;;;;;;;;;;;;;;;;8414489;28;28803;-82
2022/12/06 03:32:02;;;;;;;;;;;;;;;;;;8432737;28;28820;-83
2022/12/06 03:36:02;;;;;;;;;;;;;;;;;;8434988;28;27764;-81
2022/12/06 03:40:02;;;;;;;;;;;;;;;;;;8435042;28;27627;-82
2022/12/06 03:44:03;;;;;;;;;;;;;;;;;;8434643;28;28121;-82
2022/12/06 03:48:03;;;;;;;;;;;;;;;;;;8414985;28;28825;-83
2022/12/06 03:52:03;;;;;;;;;;;;;;;;;;8431607;28;27742;-83
2022/12/06 03:56:03;;;;;;;;;;;;;;;;;;8419507;28;29007;-82
2022/12/06 04:00:03;;;;;;;;;;;;;;;;;;8434443;28;27250;-82
2022/12/06 04:04:03;;;;;;;;;;;;;;;;;;8431938;28;27285;-82
2022/12/06 04:08:03;;;;;;;;;;;;;;;;;;8403818;28;28021;-79
2022/12/06 04:12:59;;;;;;;;;;;;;;;;;;8431402;28;28021;-82
2022/12/06 04:25:01;;;;;;;;;;;;;;;;;;8429539;28;27324;-81
2022/12/06 04:46:17;;;;;;;;;;;;;;;;;;8434360;27;27174;-82
2022/12/06 04:50:17;;;;;;;;;;;;;;;;;;8419039;28;28750;-82
2022/12/06 04:54:18;;;;;;;;;;;;;;;;;;8427175;28;28902;-81
2022/12/06 04:58:18;;;;;;;;;;;;;;;;;;8416185;28;28718;-82
2022/12/06 05:02:18;;;;;;;;;;;;;;;;;;8439612;28;27333;-82
2022/12/06 05:06:18;;;;;;;;;;;;;;;;;;8423027;28;28793;-82
2022/12/06 05:10:18;;;;;;;;;;;;;;;;;;8423478;28;29894;-83
2022/12/06 05:14:18;;;;;;;;;;;;;;;;;;8421599;28;28833;-81
2022/12/06 05:18:19;;;;;;;;;;;;;;;;;;8440821;28;28353;-82
2022/12/06 05:22:19;;;;;;;;;;;;;;;;;;8437129;28;27515;-82
2022/12/06 05:26:19;;;;;;;;;;;;;;;;;;8420974;28;28464;-83
2022/12/06 05:30:19;;;;;;;;;;;;;;;;;;8436193;28;27189;-82
2022/12/06 05:34:19;;;;;;;;;;;;;;;;;;8436122;28;28290;-81
2022/12/06 05:38:19;;;;;;;;;;;;;;;;;;8415110;28;28560;-82
2022/12/06 05:42:19;;;;;;;;;;;;;;;;;;8416353;28;29806;-82
2022/12/06 05:46:19;;;;;;;;;;;;;;;;;;8417078;28;28478;-81
2022/12/06 05:50:19;;;;;;;;;;;;;;;;;;8437787;28;28084;-81
2022/12/06 05:54:19;;;;;;;;;;;;;;;;;;8417073;27;28546;-82
2022/12/06 05:58:19;;;;;;;;;;;;;;;;;;8417621;28;28521;-81
2022/12/06 06:02:19;;;;;;;;;;;;;;;;;;8433637;28;27557;-81
2022/12/06 06:06:20;;;;;;;;;;;;;;;;;;8417713;28;30000;-82
2022/12/06 06:10:20;;;;;;;;;;;;;;;;;;8432948;28;27614;-82
2022/12/06 06:14:20;;;;;;;;;;;;;;;;;;8430468;28;27814;-80
2022/12/06 06:18:20;;;;;;;;;;;;;;;;;;8435139;28;28003;-83
2022/12/06 06:22:21;;;;;;;;;;;;;;;;;;8413944;28;28438;-83
2022/12/06 06:26:22;;;;;;;;;;;;;;;;;;8427732;28;27251;-81
2022/12/06 06:30:22;;;;;;;;;;;;;;;;;;8434350;28;27120;-82
2022/12/06 06:34:22;;;;;;;;;;;;;;;;;;8434898;28;27280;-82
2022/12/06 06:38:22;;;;;;;;;;;;;;;;;;8434134;28;27174;-82
2022/12/06 06:42:22;;;;;;;;;;;;;;;;;;8416091;28;28437;-81
2022/12/06 06:46:22;;;;;;;;;;;;;;;;;;8429822;28;28958;-83
2022/12/06 06:50:22;;;;;;;;;;;;;;;;;;8428194;28;28928;-82
2022/12/06 06:54:22;;;;;;;;;;;;;;;;;;8414262;28;28177;-82
2022/12/06 06:58:22;;;;;;;;;;;;;;;;;;8411681;28;28769;-81
2022/12/06 07:02:22;;;;;;;;;;;;;;;;;;8433725;28;28317;-81
2022/12/06 07:06:23;;;;;;;;;;;;;;;;;;8432229;27;27478;-81
2022/12/06 07:10:25;;;;;;;;;;;;;;;;;;8427365;28;28860;-82
2022/12/06 07:14:25;;;;;;;;;;;;;;;;;;8412983;28;28661;-82
2022/12/06 07:18:26;;;;;;;;;;;;;;;;;;8405883;28;28933;-82
2022/12/06 07:22:26;;;;;;;;;;;;;;;;;;8405156;28;28798;-83
2022/12/06 07:26:27;;;;;;;;;;;;;;;;;;8428540;28;28078;-82
2022/12/06 07:30:27;;;;;;;;;;;;;;;;;;8411769;28;29815;-82
2022/12/06 07:34:27;;;;;;;;;;;;;;;;;;8412252;28;27425;-82
2022/12/06 07:38:28;;;;;;;;;;;;;;;;;;8412269;28;28812;-81
2022/12/06 07:46:47;;;;;;;;;;;;;;;;;;8428405;28;27664;-82
2022/12/06 07:50:47;;;;;;;;;;;;;;;;;;8431802;28;27699;-80
2022/12/06 07:54:47;;;;;;;;;;;;;;;;;;8421034;28;28841;-81
2022/12/06 07:58:47;;;;;;;;;;;;;;;;;;8413844;28;28420;-82
2022/12/06 08:02:47;;;;;;;;;;;;;;;;;;8410838;28;28979;-82
2022/12/06 08:06:47;;;;;;;;;;;;;;;;;;8426453;28;28769;-81
2022/12/06 08:10:47;;;;;;;;;;;;;;;;;;8428368;28;27355;-82
2022/12/06 08:14:47;;;;;;;;;;;;;;;;;;8407178;28;28870;-83
2022/12/06 08:18:48;;;;;;;;;;;;;;;;;;8408974;27;28437;-82
2022/12/06 08:22:49;;;;;;;;;;;;;;;;;;8437394;28;27218;-83
2022/12/06 08:26:51;;;;;;;;;;;;;;;;;;8418630;28;29020;-82
2022/12/06 08:30:51;;;;;;;;;;;;;;;;;;8418721;28;29115;-83
2022/12/06 08:34:51;;;;;;;;;;;;;;;;;;8418089;28;28798;-83
2022/12/06 08:38:51;;;;;;;;;;;;;;;;;;8432623;28;28108;-82
2022/12/06 08:42:51;;;;;;;;;;;;;;;;;;8416705;28;29657;-82
2022/12/06 08:46:52;;;;;;;;;;;;;;;;;;8435474;28;27340;-82
2022/12/06 08:50:52;;;;;;;;;;;;;;;;;;8436324;28;28614;-82
2022/12/06 08:54:53;;;;;;;;;;;;;;;;;;8432830;28;27311;-82
2022/12/06 08:58:53;;;;;;;;;;;;;;;;;;8432214;28;27993;-81
2022/12/06 09:02:53;;;;;;;;;;;;;;;;;;8416520;28;28050;-83
2022/12/06 09:06:53;;;;;;;;;;;;;;;;;;8434938;28;27280;-83
2022/12/06 09:10:53;;;;;;;;;;;;;;;;;;8435224;28;27320;-84
2022/12/06 09:14:53;;;;;;;;;;;;;;;;;;8436613;28;27175;-83
2022/12/06 09:18:53;;;;;;;;;;;;;;;;;;8415841;28;28100;-82
2022/12/06 09:22:53;;;;;;;;;;;;;;;;;;8418796;28;28785;-83
2022/12/06 09:26:54;;;;;;;;;;;;;;;;;;8413159;28;29187;-83
2022/12/06 09:30:54;;;;;;;;;;;;;;;;;;8434507;27;27618;-83
2022/12/06 09:34:54;;;;;;;;;;;;;;;;;;8430539;28;27107;-84
2022/12/06 09:38:54;;;;;;;;;;;;;;;;;;8416592;28;29717;-85
2022/12/06 09:42:54;;;;;;;;;;;;;;;;;;8430687;28;29828;-84
2022/12/06 09:46:54;;;;;;;;;;;;;;;;;;8435711;28;27148;-83
2022/12/06 09:50:54;;;;;;;;;;;;;;;;;;8417854;28;28662;-84
2022/12/06 09:54:54;;;;;;;;;;;;;;;;;;8435092;28;28780;-83
2022/12/06 09:58:55;;;;;;;;;;;;;;;;;;8413345;28;29812;-84
2022/12/06 10:02:55;;;;;;;;;;;;;;;;;;8418450;28;29548;-83
2022/12/06 10:06:55;;;;;;;;;;;;;;;;;;8417217;28;29149;-84
2022/12/06 10:10:56;;;;;;;;;;;;;;;;;;8435037;28;29650;-83
2022/12/06 10:14:56;;;;;;;;;;;;;;;;;;8418454;28;29036;-84
2022/12/06 10:18:56;;;;;;;;;;;;;;;;;;8435088;28;27375;-83
2022/12/06 10:22:56;;;;;;;;;;;;;;;;;;8430383;28;28284;-85
2022/12/06 10:26:56;;;;;;;;;;;;;;;;;;8411965;28;28928;-84
2022/12/06 10:30:56;;;;;;;;;;;;;;;;;;8409050;28;29631;-83
2022/12/06 10:34:56;;;;;;;;;;;;;;;;;;8414844;28;29071;-82
2022/12/06 10:38:56;;;;;;;;;;;;;;;;;;8415999;28;28518;-84
2022/12/06 10:42:56;;;;;;;;;;;;;;;;;;8411240;28;28480;-83
2022/12/06 10:47:02;;;;;;;;;;;;;;;;;;8430902;28;27212;-84
2022/12/06 10:51:02;;;;;;;;;;;;;;;;;;8430228;28;28904;-82
2022/12/06 10:55:03;;;;;;;;;;;;;;;;;;8432152;28;27343;-83
2022/12/06 10:59:03;;;;;;;;;;;;;;;;;;8416436;27;29887;-82
2022/12/06 11:03:03;;;;;;;;;;;;;;;;;;8420933;27;28443;-82
2022/12/06 11:07:03;;;;;;;;;;;;;;;;;;8439152;27;27912;-84
2022/12/06 11:11:03;;;;;;;;;;;;;;;;;;8440693;28;27445;-85
2022/12/06 11:15:03;;;;;;;;;;;;;;;;;;8440427;27;28650;-83
2022/12/06 11:19:03;;;;;;;;;;;;;;;;;;8427771;28;28783;-82
2022/12/06 11:23:04;;;;;;;;;;;;;;;;;;8426553;28;28390;-83
2022/12/06 11:27:07;;;;;;;;;;;;;;;;;;8429914;28;29062;-84
2022/12/06 11:31:07;;;;;;;;;;;;;;;;;;8427128;28;29063;-85
2022/12/06 11:35:07;;;;;;;;;;;;;;;;;;8442168;28;28933;-82
2022/12/06 11:39:07;;;;;;;;;;;;;;;;;;8429810;28;28917;-83
2022/12/06 11:43:07;;;;;;;;;;;;;;;;;;8447132;28;27109;-84
2022/12/06 11:47:07;;;;;;;;;;;;;;;;;;8427585;28;28524;-82
2022/12/06 11:51:07;;;;;;;;;;;;;;;;;;8416930;28;28490;-82
2022/12/06 11:55:07;;;;;;;;;;;;;;;;;;8448749;28;27359;-82
2022/12/06 11:59:07;;;;;;;;;;;;;;;;;;8424559;28;28497;-82
2022/12/06 12:03:07;;;;;;;;;;;;;;;;;;8442384;28;28888;-83
2022/12/06 12:07:08;;;;;;;;;;;;;;;;;;8426320;28;29028;-83
2022/12/06 12:11:08;;;;;;;;;;;;;;;;;;8443092;28;28528;-82
2022/12/06 12:15:09;;;;;;;;;;;;;;;;;;8429476;28;28691;-83
2022/12/06 12:19:09;;;;;;;;;;;;;;;;;;8435538;28;28807;-83
2022/12/06 12:23:09;;;;;;;;;;;;;;;;;;8436589;28;28565;-84
2022/12/06 12:27:09;;;;;;;;;;;;;;;;;;8438450;28;28868;-83
2022/12/06 12:31:09;;;;;;;;;;;;;;;;;;8438282;28;29053;-83
2022/12/06 12:35:09;;;;;;;;;;;;;;;;;;8452648;28;28786;-85
2022/12/06 12:39:09;;;;;;;;;;;;;;;;;;8452423;28;27747;-83
2022/12/06 12:43:09;;;;;;;;;;;;;;;;;;8422150;28;29076;-84
2022/12/06 12:47:09;;;;;;;;;;;;;;;;;;8430479;28;28801;-83
2022/12/06 12:51:10;;;;;;;;;;;;;;;;;;8430633;28;29132;-83
2022/12/06 12:55:10;;;;;;;;;;;;;;;;;;8452600;28;28646;-83
2022/12/06 12:59:10;;;;;;;;;;;;;;;;;;8453549;28;27159;-83
2022/12/06 13:03:10;;;;;;;;;;;;;;;;;;8453949;28;27272;-82
2022/12/06 13:07:10;;;;;;;;;;;;;;;;;;8455417;27;27692;-83
2022/12/06 13:11:10;;;;;;;;;;;;;;;;;;8457059;28;27424;-85
2022/12/06 13:15:10;;;;;;;;;;;;;;;;;;8456967;28;28236;-83
2022/12/06 13:19:10;;;;;;;;;;;;;;;;;;8451074;28;27368;-78
2022/12/06 13:23:10;;;;;;;;;;;;;;;;;;8449095;28;27646;-82
2022/12/06 13:27:10;;;;;;;;;;;;;;;;;;8450223;28;29253;-82
2022/12/06 13:31:10;;;;;;;;;;;;;;;;;;8439368;28;28456;-83
2022/12/06 13:35:11;;;;;;;;;;;;;;;;;;8461578;28;28314;-81
2022/12/06 13:39:11;;;;;;;;;;;;;;;;;;8452561;28;28588;-82
2022/12/06 13:43:11;;;;;;;;;;;;;;;;;;8444002;28;28641;-81
2022/12/06 13:47:11;;;;;;;;;;;;;;;;;;8462823;28;27332;-82
2022/12/06 13:51:11;;;;;;;;;;;;;;;;;;8462410;28;27288;-83
2022/12/06 13:55:11;;;;;;;;;;;;;;;;;;8461097;28;27248;-81
2022/12/06 13:59:11;;;;;;;;;;;;;;;;;;8442885;28;28489;-81
2022/12/06 14:03:11;;;;;;;;;;;;;;;;;;8455419;28;27407;-82
2022/12/06 14:07:11;;;;;;;;;;;;;;;;;;8454807;28;27290;-82
2022/12/06 14:11:15;;;;;;;;;;;;;;;;;;8444460;28;28807;-81
2022/12/06 14:15:15;;;;;;;;;;;;;;;;;;8419608;28;28585;-80
2022/12/06 14:19:15;;;;;;;;;;;;;;;;;;8412631;27;28552;-78
2022/12/06 14:23:15;;;;;;;;;;;;;;;;;;8431773;27;27363;-78
2022/12/06 14:27:15;;;;;;;;;;;;;;;;;;8412846;28;28685;-78
2022/12/06 14:31:15;;;;;;;;;;;;;;;;;;8431877;27;27181;-78
2022/12/06 14:35:15;;;;;;;;;;;;;;;;;;8428403;27;27422;-79
2022/12/06 14:39:16;;;;;;;;;;;;;;;;;;8428143;27;28181;-79
2022/12/06 14:43:16;;;;;;;;;;;;;;;;;;8430647;27;27468;-77
2022/12/06 14:47:16;;;;;;;;;;;;;;;;;;8428622;27;27849;-78
2022/12/06 14:51:16;;;;;;;;;;;;;;;;;;8429336;27;28427;-79
2022/12/06 14:55:16;;;;;;;;;;;;;;;;;;8427440;28;28695;-78
2022/12/06 14:59:16;;;;;;;;;;;;;;;;;;8429467;27;27398;-77
2022/12/06 15:03:16;;;;;;;;;;;;;;;;;;8413357;27;28711;-77
2022/12/06 15:07:17;;;;;;;;;;;;;;;;;;8410474;28;28646;-77
2022/12/06 15:12:53;;;;;;;;;;;;;;;;;;8427746;27;28670;-78
2022/12/06 15:15:37;;;;;;;;;;;;;;;;;;8424310;27;28600;-78
2022/12/06 15:19:37;;;;;;;;;;;;;;;;;;8428363;27;27699;-78
2022/12/06 15:23:37;;;;;;;;;;;;;;;;;;8425959;28;27112;-78
2022/12/06 15:27:37;;;;;;;;;;;;;;;;;;8427854;27;28215;-78
2022/12/06 15:31:38;;;;;;;;;;;;;;;;;;8405609;27;28161;-77
2022/12/06 15:35:38;;;;;;;;;;;;;;;;;;8406845;28;27239;-77
2022/12/06 15:39:38;;;;;;;;;;;;;;;;;;8426443;28;27220;-77
2022/12/06 15:43:38;;;;;;;;;;;;;;;;;;8427155;28;27486;-78
2022/12/06 15:47:38;;;;;;;;;;;;;;;;;;8410945;28;27430;-79
2022/12/06 15:51:38;;;;;;;;;;;;;;;;;;8407186;28;27141;-80
2022/12/06 15:55:38;;;;;;;;;;;;;;;;;;8407187;28;29393;-79
2022/12/06 15:59:38;;;;;;;;;;;;;;;;;;8402140;28;28664;-79
2022/12/06 16:03:39;;;;;;;;;;;;;;;;;;8407773;28;28518;-79
2022/12/06 16:07:39;;;;;;;;;;;;;;;;;;8409437;28;28201;-80
2022/12/06 16:11:39;;;;;;;;;;;;;;;;;;8426242;28;27115;-80
2022/12/06 16:15:39;;;;;;;;;;;;;;;;;;8404445;28;28819;-80
2022/12/06 16:24:03;;;;;;;;;;;;;;;;;;8418770;28;28412;-78
2022/12/06 16:28:03;;;;;;;;;;;;;;;;;;8427077;28;27420;-80
2022/12/06 16:32:03;;;;;;;;;;;;;;;;;;8411814;28;27280;-79
2022/12/06 16:36:03;;;;;;;;;;;;;;;;;;8408199;28;28410;-79
2022/12/06 16:40:03;;;;;;;;;;;;;;;;;;8408745;27;28522;-79
2022/12/06 16:44:03;;;;;;;;;;;;;;;;;;8427313;28;29801;-78
2022/12/06 16:48:03;;;;;;;;;;;;;;;;;;8431762;28;27056;-79
2022/12/06 16:52:04;;;;;;;;;;;;;;;;;;8432334;28;27407;-78
2022/12/06 16:56:04;;;;;;;;;;;;;;;;;;8412398;28;28898;-79
2022/12/06 17:00:04;;;;;;;;;;;;;;;;;;8428888;28;27425;-77
2022/12/06 17:04:04;;;;;;;;;;;;;;;;;;8427650;28;28074;-79
2022/12/06 17:08:04;;;;;;;;;;;;;;;;;;8412497;28;29049;-80
2022/12/06 17:12:11;;;;;;;;;;;;;;;;;;8412609;28;28245;-79
2022/12/06 17:16:11;;;;;;;;;;;;;;;;;;8425680;28;27936;-78
2022/12/06 17:20:11;;;;;;;;;;;;;;;;;;8423519;28;27529;-78
2022/12/06 17:24:11;;;;;;;;;;;;;;;;;;8415217;28;29757;-79
2022/12/06 17:28:11;;;;;;;;;;;;;;;;;;8429111;28;27231;-80
2022/12/06 17:32:11;;;;;;;;;;;;;;;;;;8429323;28;28229;-78
2022/12/06 17:36:12;;;;;;;;;;;;;;;;;;8410204;28;27536;-79
2022/12/06 17:40:12;;;;;;;;;;;;;;;;;;8410619;28;28722;-79
2022/12/06 17:44:12;;;;;;;;;;;;;;;;;;8427553;28;28377;-79
2022/12/06 17:48:12;;;;;;;;;;;;;;;;;;8412353;28;28231;-78
2022/12/06 17:52:12;;;;;;;;;;;;;;;;;;8423096;27;27180;-78
2022/12/06 17:56:12;;;;;;;;;;;;;;;;;;8411164;28;28482;-77
2022/12/06 18:00:12;;;;;;;;;;;;;;;;;;8413011;28;28557;-78
2022/12/06 18:04:12;;;;;;;;;;;;;;;;;;8410381;28;28927;-77
2022/12/06 18:08:12;;;;;;;;;;;;;;;;;;8410033;28;28576;-78
2022/12/06 18:12:13;;;;;;;;;;;;;;;;;;8408221;28;28490;-76
2022/12/06 18:16:13;;;;;;;;;;;;;;;;;;8426452;28;29722;-78
2022/12/06 18:20:14;;;;;;;;;;;;;;;;;;8409622;28;29391;-79
2022/12/06 18:24:14;;;;;;;;;;;;;;;;;;8411646;28;28560;-79
2022/12/06 18:28:14;;;;;;;;;;;;;;;;;;8427267;28;27243;-79
2022/12/06 18:32:14;;;;;;;;;;;;;;;;;;8412556;28;27449;-76
2022/12/06 18:36:14;;;;;;;;;;;;;;;;;;8411498;28;29521;-78
2022/12/06 18:40:15;;;;;;;;;;;;;;;;;;8409534;28;28838;-77
2022/12/06 18:44:15;;;;;;;;;;;;;;;;;;8411153;28;28498;-78
2022/12/06 18:48:15;;;;;;;;;;;;;;;;;;8429251;28;27335;-79
2022/12/06 18:52:15;;;;;;;;;;;;;;;;;;8407899;28;28654;-78
2022/12/06 18:56:15;;;;;;;;;;;;;;;;;;8428972;28;27373;-78
2022/12/06 19:00:15;;;;;;;;;;;;;;;;;;8426906;28;27267;-78
2022/12/06 19:04:17;;;;;;;;;;;;;;;;;;8428883;28;27194;-78
2022/12/06 19:08:17;;;;;;;;;;;;;;;;;;8412966;28;27910;-77
2022/12/06 19:12:17;;;;;;;;;;;;;;;;;;8408550;28;27657;-76
2022/12/06 19:16:19;;;;;;;;;;;;;;;;;;8407757;28;28239;-79
2022/12/06 19:20:19;;;;;;;;;;;;;;;;;;8410585;28;29196;-77
2022/12/06 19:24:20;;;;;;;;;;;;;;;;;;8408377;28;27376;-79
2022/12/06 19:28:20;;;;;;;;;;;;;;;;;;8409065;28;28768;-78
2022/12/06 19:32:20;;;;;;;;;;;;;;;;;;8409758;28;28241;-77
2022/12/06 19:36:21;;;;;;;;;;;;;;;;;;8409009;28;28397;-78
2022/12/06 19:40:21;;;;;;;;;;;;;;;;;;8411170;28;27618;-77
2022/12/06 19:44:21;;;;;;;;;;;;;;;;;;8428733;28;27308;-78
2022/12/06 19:48:21;;;;;;;;;;;;;;;;;;8427719;28;27528;-78
2022/12/06 19:52:21;;;;;;;;;;;;;;;;;;8410715;28;27493;-79
2022/12/06 19:56:21;;;;;;;;;;;;;;;;;;8408164;28;29163;-77
2022/12/06 20:00:21;;;;;;;;;;;;;;;;;;8409848;28;28300;-79
2022/12/06 20:04:21;;;;;;;;;;;;;;;;;;8422979;28;27414;-77
2022/12/06 20:08:21;;;;;;;;;;;;;;;;;;8405087;28;27170;-77
2022/12/06 20:12:21;;;;;;;;;;;;;;;;;;8425633;28;27259;-78
2022/12/06 20:16:22;;;;;;;;;;;;;;;;;;8408368;28;27527;-78
2022/12/06 20:20:22;;;;;;;;;;;;;;;;;;8403128;28;28475;-78
2022/12/06 20:24:22;;;;;;;;;;;;;;;;;;8408127;28;28155;-77
2022/12/06 20:28:22;;;;;;;;;;;;;;;;;;8404858;28;28535;-78
2022/12/06 20:32:22;;;;;;;;;;;;;;;;;;8427692;28;27394;-78
2022/12/06 20:36:22;;;;;;;;;;;;;;;;;;8408348;28;28395;-78
2022/12/06 20:40:22;;;;;;;;;;;;;;;;;;8420256;28;29019;-79
2022/12/06 20:44:23;;;;;;;;;;;;;;;;;;8406371;28;28875;-78
2022/12/06 20:48:23;;;;;;;;;;;;;;;;;;8408768;28;28813;-78
2022/12/06 20:52:23;;;;;;;;;;;;;;;;;;8422302;28;28168;-78
2022/12/06 20:56:23;;;;;;;;;;;;;;;;;;8407990;28;28170;-78
2022/12/06 21:00:23;;;;;;;;;;;;;;;;;;8423507;28;27560;-79
2022/12/06 21:04:24;;;;;;;;;;;;;;;;;;8394388;28;28635;-77
2022/12/06 21:08:24;;;;;;;;;;;;;;;;;;8403131;28;27267;-79
2022/12/06 21:12:24;;;;;;;;;;;;;;;;;;8422951;28;28124;-79
2022/12/06 21:16:25;;;;;;;;;;;;;;;;;;8418281;28;27240;-79
2022/12/06 21:20:25;;;;;;;;;;;;;;;;;;8408917;28;30194;-78
2022/12/06 21:24:25;;;;;;;;;;;;;;;;;;8408301;28;28425;-77
2022/12/06 21:28:25;;;;;;;;;;;;;;;;;;8409882;28;28208;-78
2022/12/06 21:32:25;;;;;;;;;;;;;;;;;;8412983;28;28533;-77
2022/12/06 21:36:25;;;;;;;;;;;;;;;;;;8410901;28;29241;-77
2022/12/06 21:40:25;;;;;;;;;;;;;;;;;;8429070;28;27252;-78
2022/12/06 21:44:25;;;;;;;;;;;;;;;;;;8412518;28;28518;-78
2022/12/06 21:48:25;;;;;;;;;;;;;;;;;;8426189;28;27122;-77
2022/12/06 21:52:26;;;;;;;;;;;;;;;;;;8427404;28;27715;-77
2022/12/06 21:56:26;;;;;;;;;;;;;;;;;;8429000;28;28534;-77
2022/12/06 22:00:26;;;;;;;;;;;;;;;;;;8428488;28;27837;-77
2022/12/06 22:04:26;;;;;;;;;;;;;;;;;;8413146;28;28933;-77
2022/12/06 22:08:26;;;;;;;;;;;;;;;;;;8427247;28;29817;-77
2022/12/06 22:12:26;;;;;;;;;;;;;;;;;;8402278;28;28674;-77
2022/12/06 22:16:26;;;;;;;;;;;;;;;;;;8412030;28;28641;-77
2022/12/06 22:20:26;;;;;;;;;;;;;;;;;;8408809;28;27390;-78
2022/12/06 22:24:26;;;;;;;;;;;;;;;;;;8425064;28;29881;-77
2022/12/06 22:28:26;;;;;;;;;;;;;;;;;;8408618;28;27404;-78
2022/12/06 22:32:27;;;;;;;;;;;;;;;;;;8428183;28;27242;-77
2022/12/06 22:36:27;;;;;;;;;;;;;;;;;;8428364;27;28985;-78
2022/12/06 22:40:27;;;;;;;;;;;;;;;;;;8428021;28;27328;-78
2022/12/06 22:44:27;;;;;;;;;;;;;;;;;;8409177;28;28648;-78
2022/12/06 22:48:27;;;;;;;;;;;;;;;;;;8430166;28;28593;-78
2022/12/06 22:52:27;;;;;;;;;;;;;;;;;;8430146;28;27893;-76
2022/12/06 22:56:27;;;;;;;;;;;;;;;;;;8410309;28;28737;-77
2022/12/06 23:00:27;;;;;;;;;;;;;;;;;;8426016;28;29645;-77
2022/12/06 23:04:27;;;;;;;;;;;;;;;;;;8406283;28;27453;-77
2022/12/06 23:17:05;;;;;;;;;;;;;;;;;;8428083;28;27155;-77
2022/12/06 23:21:06;;;;;;;;;;;;;;;;;;8426856;28;29777;-76
2022/12/06 23:25:06;;;;;;;;;;;;;;;;;;8407542;28;29004;-78
2022/12/06 23:29:06;;;;;;;;;;;;;;;;;;8423977;28;27323;-78
2022/12/06 23:33:06;;;;;;;;;;;;;;;;;;8404844;28;30380;-78
2022/12/06 23:37:06;;;;;;;;;;;;;;;;;;8425845;28;27572;-78
2022/12/06 23:41:06;;;;;;;;;;;;;;;;;;8408093;28;28157;-78
2022/12/06 23:45:06;;;;;;;;;;;;;;;;;;8410025;28;27593;-79
2022/12/06 23:49:06;;;;;;;;;;;;;;;;;;8402378;27;28989;-79
2022/12/06 23:53:06;;;;;;;;;;;;;;;;;;8427369;28;27370;-78
2022/12/06 23:57:06;;;;;;;;;;;;;;;;;;8427153;28;27238;-77
